EJA589 KHXD-KBVY
Flight info
| Callsign | EJA589 |
|---|---|
| Flight time | 1h 57m |
| Altitude | 41000 |
| Route | JROSS ELLDE Q97 PAACK JAMIE CONFR Q133 JFK HFD DREEM3 |
| Aircraft | CL60/M-SBDE1E2E3FGHIJ1J4J5J7M3RWXYZ/LB1V1D1 |
Departure
| Time | 2026-05-07 00:29 |
|---|---|
| Airport | Hilton Head Airport (KHXD) |
Arrival
| Time | 2026-05-07 02:26 |
|---|---|
| Airport | Beverly Regional Airport (KBVY) |
| Time | Latitude | Longitude | Altitude | Speed | Heading |
|---|---|---|---|---|---|
| 2026-05-07 00:06 | 32.22170 | -80.69725 | 14 ft | 0 kts | 205° |
| 2026-05-07 00:25 | 32.22144 | -80.69759 | 14 ft | 10 kts | 265° |
| 2026-05-07 00:26 | 32.22195 | -80.69777 | 14 ft | 10 kts | 26° |
| 2026-05-07 00:26 | 32.22277 | -80.69730 | 14 ft | 15 kts | 25° |
| 2026-05-07 00:26 | 32.22384 | -80.69669 | 14 ft | 18 kts | 26° |
| 2026-05-07 00:26 | 32.22514 | -80.69598 | 14 ft | 22 kts | 25° |
| 2026-05-07 00:27 | 32.22644 | -80.69521 | 14 ft | 22 kts | 26° |
| 2026-05-07 00:27 | 32.22795 | -80.69435 | 14 ft | 25 kts | 25° |
| 2026-05-07 00:27 | 32.22931 | -80.69359 | 14 ft | 19 kts | 26° |
| 2026-05-07 00:27 | 32.23025 | -80.69315 | 14 ft | 8 kts | 329° |
| 2026-05-07 00:28 | 32.23053 | -80.69380 | 14 ft | 5 kts | 287° |
| 2026-05-07 00:28 | 32.23017 | -80.69418 | 14 ft | 13 kts | 206° |
| 2026-05-07 00:28 | 32.22647 | -80.69629 | 14 ft | 109 kts | 206° |
| 2026-05-07 00:28 | 32.21742 | -80.70149 | 316 ft | 167 kts | 205° |
| 2026-05-07 00:29 | 32.20624 | -80.70785 | 1126 ft | 196 kts | 205° |
| 2026-05-07 00:29 | 32.19379 | -80.71505 | 1820 ft | 200 kts | 205° |
| 2026-05-07 00:30 | 32.17884 | -80.75935 | 3933 ft | 261 kts | 291° |
| 2026-05-07 00:30 | 32.18985 | -80.77620 | 5108 ft | 276 kts | 319° |
| 2026-05-07 00:30 | 32.20714 | -80.78523 | 6636 ft | 283 kts | 347° |
| 2026-05-07 00:30 | 32.22684 | -80.78333 | 8009 ft | 293 kts | 10° |
| 2026-05-07 00:31 | 32.24669 | -80.77691 | 9258 ft | 300 kts | 11° |
| 2026-05-07 00:31 | 32.26681 | -80.77039 | 10511 ft | 303 kts | 10° |
| 2026-05-07 00:31 | 32.28712 | -80.76383 | 11708 ft | 308 kts | 9° |
| 2026-05-07 00:31 | 32.30903 | -80.75687 | 12157 ft | 340 kts | 10° |
| 2026-05-07 00:32 | 32.33271 | -80.74933 | 12673 ft | 365 kts | 10° |
| 2026-05-07 00:32 | 32.35754 | -80.74136 | 13558 ft | 375 kts | 10° |
| 2026-05-07 00:32 | 32.38305 | -80.73314 | 14554 ft | 380 kts | 9° |
| 2026-05-07 00:32 | 32.40873 | -80.72487 | 15548 ft | 384 kts | 9° |
| 2026-05-07 00:33 | 32.43449 | -80.71657 | 16514 ft | 388 kts | 8° |
| 2026-05-07 00:33 | 32.46063 | -80.70817 | 17361 ft | 395 kts | 8° |
| 2026-05-07 00:33 | 32.48741 | -80.69955 | 18255 ft | 399 kts | 8° |
| 2026-05-07 00:33 | 32.51443 | -80.69086 | 19168 ft | 402 kts | 8° |
| 2026-05-07 00:34 | 32.54141 | -80.68218 | 19935 ft | 407 kts | 8° |
| 2026-05-07 00:34 | 32.56894 | -80.67333 | 20706 ft | 412 kts | 8° |
| 2026-05-07 00:34 | 32.59675 | -80.66437 | 21459 ft | 417 kts | 8° |
| 2026-05-07 00:34 | 32.62463 | -80.65540 | 22144 ft | 422 kts | 8° |
| 2026-05-07 00:35 | 32.65326 | -80.64617 | 22852 ft | 426 kts | 8° |
| 2026-05-07 00:35 | 32.68162 | -80.63693 | 23544 ft | 430 kts | 9° |
| 2026-05-07 00:35 | 32.70976 | -80.62320 | 24225 ft | 446 kts | 22° |
| 2026-05-07 00:35 | 32.73527 | -80.60081 | 24912 ft | 460 kts | 35° |
| 2026-05-07 00:36 | 32.75877 | -80.57482 | 25457 ft | 466 kts | 36° |
| 2026-05-07 00:36 | 32.78267 | -80.54822 | 26034 ft | 471 kts | 36° |
| 2026-05-07 00:36 | 32.80630 | -80.52194 | 26677 ft | 472 kts | 36° |
| 2026-05-07 00:36 | 32.83043 | -80.49509 | 27248 ft | 475 kts | 36° |
| 2026-05-07 00:37 | 32.85464 | -80.46812 | 27790 ft | 478 kts | 36° |
| 2026-05-07 00:37 | 32.87918 | -80.44080 | 28222 ft | 483 kts | 36° |
| 2026-05-07 00:37 | 32.90347 | -80.41370 | 28687 ft | 486 kts | 36° |
| 2026-05-07 00:37 | 32.92831 | -80.38599 | 29144 ft | 489 kts | 36° |
| 2026-05-07 00:38 | 32.95336 | -80.35800 | 29646 ft | 490 kts | 36° |
| 2026-05-07 00:38 | 32.97795 | -80.33051 | 30087 ft | 492 kts | 36° |
| 2026-05-07 00:38 | 33.00301 | -80.30245 | 30626 ft | 491 kts | 36° |
| 2026-05-07 00:38 | 33.02793 | -80.27454 | 31064 ft | 492 kts | 36° |
| 2026-05-07 00:39 | 33.05177 | -80.24784 | 31447 ft | 494 kts | 35° |
| 2026-05-07 00:39 | 33.07814 | -80.21825 | 31950 ft | 493 kts | 35° |
| 2026-05-07 00:39 | 33.10310 | -80.19024 | 32362 ft | 494 kts | 35° |
| 2026-05-07 00:39 | 33.12828 | -80.16195 | 32842 ft | 493 kts | 35° |
| 2026-05-07 00:40 | 33.15306 | -80.13409 | 33276 ft | 493 kts | 35° |
| 2026-05-07 00:40 | 33.17810 | -80.10592 | 33736 ft | 493 kts | 34° |
| 2026-05-07 00:40 | 33.20316 | -80.07767 | 34294 ft | 490 kts | 34° |
| 2026-05-07 00:40 | 33.22812 | -80.04956 | 34652 ft | 492 kts | 34° |
| 2026-05-07 00:41 | 33.25282 | -80.02169 | 35123 ft | 491 kts | 33° |
| 2026-05-07 00:41 | 33.27761 | -79.99373 | 35466 ft | 492 kts | 34° |
| 2026-05-07 00:41 | 33.30275 | -79.96532 | 35862 ft | 492 kts | 33° |
| 2026-05-07 00:41 | 33.32745 | -79.93739 | 36293 ft | 490 kts | 33° |
| 2026-05-07 00:42 | 33.35215 | -79.90944 | 36700 ft | 489 kts | 33° |
| 2026-05-07 00:42 | 33.37727 | -79.88100 | 37071 ft | 488 kts | 32° |
| 2026-05-07 00:42 | 33.40206 | -79.85292 | 37351 ft | 490 kts | 32° |
| 2026-05-07 00:42 | 33.42679 | -79.82489 | 37567 ft | 492 kts | 32° |
| 2026-05-07 00:43 | 33.45155 | -79.79679 | 37898 ft | 491 kts | 32° |
| 2026-05-07 00:43 | 33.47643 | -79.76850 | 38311 ft | 488 kts | 31° |
| 2026-05-07 00:43 | 33.50079 | -79.74078 | 38681 ft | 486 kts | 31° |
| 2026-05-07 00:43 | 33.52539 | -79.71281 | 38883 ft | 488 kts | 31° |
| 2026-05-07 00:44 | 33.55032 | -79.68444 | 39172 ft | 488 kts | 31° |
| 2026-05-07 00:44 | 33.57483 | -79.65646 | 39631 ft | 484 kts | 31° |
| 2026-05-07 00:44 | 33.59899 | -79.62888 | 39947 ft | 483 kts | 31° |
| 2026-05-07 00:44 | 33.62348 | -79.60096 | 40134 ft | 485 kts | 31° |
| 2026-05-07 00:45 | 33.64816 | -79.57276 | 40485 ft | 482 kts | 31° |
| 2026-05-07 00:45 | 33.67262 | -79.54479 | 40731 ft | 482 kts | 31° |
| 2026-05-07 00:45 | 33.69680 | -79.51711 | 41007 ft | 481 kts | 31° |
| 2026-05-07 00:45 | 33.72133 | -79.48906 | 40974 ft | 486 kts | 32° |
| 2026-05-07 00:46 | 33.77065 | -79.43259 | 40967 ft | 492 kts | 31° |
| 2026-05-07 00:46 | 33.82064 | -79.37521 | 40969 ft | 497 kts | 31° |
| 2026-05-07 00:47 | 33.87099 | -79.31726 | 40977 ft | 498 kts | 32° |
| 2026-05-07 00:47 | 33.92097 | -79.25964 | 40985 ft | 498 kts | 32° |
| 2026-05-07 00:48 | 33.97115 | -79.20167 | 40980 ft | 497 kts | 31° |
| 2026-05-07 00:48 | 34.02129 | -79.14367 | 40978 ft | 497 kts | 32° |
| 2026-05-07 00:49 | 34.07107 | -79.08600 | 40965 ft | 499 kts | 32° |
| 2026-05-07 00:49 | 34.12125 | -79.02777 | 40952 ft | 500 kts | 32° |
| 2026-05-07 00:50 | 34.17151 | -78.96934 | 40960 ft | 500 kts | 32° |
| 2026-05-07 00:50 | 34.22155 | -78.91104 | 40965 ft | 499 kts | 32° |
| 2026-05-07 00:51 | 34.27150 | -78.85275 | 40965 ft | 499 kts | 31° |
| 2026-05-07 00:51 | 34.32113 | -78.79474 | 40967 ft | 498 kts | 32° |
| 2026-05-07 00:52 | 34.37130 | -78.73601 | 40964 ft | 499 kts | 32° |
| 2026-05-07 00:52 | 34.42240 | -78.68015 | 40982 ft | 486 kts | 24° |
| 2026-05-07 00:53 | 34.47630 | -78.63058 | 40972 ft | 485 kts | 24° |
| 2026-05-07 00:53 | 34.52965 | -78.58132 | 40972 ft | 484 kts | 24° |
| 2026-05-07 00:54 | 34.58344 | -78.53159 | 40971 ft | 485 kts | 24° |
| 2026-05-07 00:54 | 34.63717 | -78.48180 | 40973 ft | 486 kts | 24° |
| 2026-05-07 00:55 | 34.69114 | -78.43169 | 40965 ft | 486 kts | 24° |
| 2026-05-07 00:55 | 34.74485 | -78.38174 | 40967 ft | 487 kts | 24° |
| 2026-05-07 00:56 | 34.79884 | -78.33141 | 40951 ft | 485 kts | 25° |
| 2026-05-07 00:56 | 34.85266 | -78.28115 | 40967 ft | 485 kts | 24° |
| 2026-05-07 00:57 | 34.90619 | -78.23110 | 40958 ft | 485 kts | 25° |
| 2026-05-07 00:57 | 34.95947 | -78.18117 | 40965 ft | 485 kts | 24° |
| 2026-05-07 00:58 | 35.01315 | -78.13081 | 40953 ft | 486 kts | 24° |
| 2026-05-07 00:58 | 35.06670 | -78.08050 | 40954 ft | 489 kts | 25° |
| 2026-05-07 00:59 | 35.14767 | -78.00421 | 40961 ft | 489 kts | 25° |
| 2026-05-07 01:00 | 35.20216 | -77.95273 | 40953 ft | 488 kts | 24° |
| 2026-05-07 01:00 | 35.25601 | -77.90180 | 40959 ft | 488 kts | 24° |
| 2026-05-07 01:01 | 35.30970 | -77.85094 | 40953 ft | 489 kts | 24° |
| 2026-05-07 01:01 | 35.36349 | -77.79987 | 40953 ft | 488 kts | 24° |
| 2026-05-07 01:02 | 35.41702 | -77.74896 | 40954 ft | 488 kts | 24° |
| 2026-05-07 01:02 | 35.47086 | -77.69769 | 40960 ft | 489 kts | 24° |
| 2026-05-07 01:03 | 35.52457 | -77.64643 | 40949 ft | 488 kts | 24° |
| 2026-05-07 01:03 | 35.57825 | -77.59510 | 40950 ft | 486 kts | 24° |
| 2026-05-07 01:04 | 35.63165 | -77.54398 | 40950 ft | 487 kts | 24° |
| 2026-05-07 01:04 | 35.68552 | -77.49233 | 40945 ft | 489 kts | 25° |
| 2026-05-07 01:05 | 35.73911 | -77.44085 | 40942 ft | 490 kts | 24° |
| 2026-05-07 01:05 | 35.79285 | -77.38911 | 40948 ft | 489 kts | 24° |
| 2026-05-07 01:06 | 35.84691 | -77.33695 | 40949 ft | 486 kts | 25° |
| 2026-05-07 01:06 | 35.90017 | -77.28549 | 40957 ft | 486 kts | 25° |
| 2026-05-07 01:07 | 35.95504 | -77.23789 | 40951 ft | 475 kts | 18° |
| 2026-05-07 01:07 | 36.01183 | -77.19526 | 40953 ft | 478 kts | 18° |
| 2026-05-07 01:08 | 36.06844 | -77.15258 | 40938 ft | 477 kts | 18° |
| 2026-05-07 01:08 | 36.12517 | -77.10971 | 40950 ft | 475 kts | 18° |
| 2026-05-07 01:09 | 36.18157 | -77.06703 | 40947 ft | 475 kts | 17° |
| 2026-05-07 01:09 | 36.23779 | -77.02441 | 40933 ft | 475 kts | 18° |
| 2026-05-07 01:10 | 36.29431 | -76.98148 | 40951 ft | 476 kts | 18° |
| 2026-05-07 01:10 | 36.35102 | -76.93835 | 40927 ft | 478 kts | 17° |
| 2026-05-07 01:11 | 36.40755 | -76.89524 | 40927 ft | 475 kts | 18° |
| 2026-05-07 01:11 | 36.46377 | -76.85229 | 40945 ft | 475 kts | 17° |
| 2026-05-07 01:12 | 36.52022 | -76.80909 | 40925 ft | 474 kts | 17° |
| 2026-05-07 01:12 | 36.57581 | -76.76646 | 40941 ft | 472 kts | 18° |
| 2026-05-07 01:13 | 36.63261 | -76.72289 | 40927 ft | 475 kts | 18° |
| 2026-05-07 01:13 | 36.68836 | -76.68004 | 40946 ft | 476 kts | 17° |
| 2026-05-07 01:14 | 36.74452 | -76.63678 | 40937 ft | 476 kts | 17° |
| 2026-05-07 01:14 | 36.80114 | -76.59306 | 40916 ft | 476 kts | 17° |
| 2026-05-07 01:15 | 36.85735 | -76.54962 | 40919 ft | 477 kts | 18° |
| 2026-05-07 01:15 | 36.91410 | -76.50568 | 40909 ft | 478 kts | 18° |
| 2026-05-07 01:16 | 36.97054 | -76.46188 | 40905 ft | 478 kts | 17° |
| 2026-05-07 01:16 | 37.02714 | -76.41788 | 40917 ft | 479 kts | 18° |
| 2026-05-07 01:17 | 37.08374 | -76.37380 | 40911 ft | 478 kts | 17° |
| 2026-05-07 01:17 | 37.14017 | -76.32978 | 40916 ft | 477 kts | 18° |
| 2026-05-07 01:18 | 37.19660 | -76.28571 | 40917 ft | 480 kts | 18° |
| 2026-05-07 01:18 | 37.25343 | -76.24122 | 40923 ft | 481 kts | 19° |
| 2026-05-07 01:19 | 37.31067 | -76.19636 | 40910 ft | 483 kts | 18° |
| 2026-05-07 01:19 | 37.36769 | -76.15151 | 40906 ft | 481 kts | 18° |
| 2026-05-07 01:20 | 37.42469 | -76.10665 | 40910 ft | 483 kts | 18° |
| 2026-05-07 01:20 | 37.48171 | -76.06172 | 40892 ft | 486 kts | 18° |
| 2026-05-07 01:21 | 37.53940 | -76.01612 | 40904 ft | 485 kts | 19° |
| 2026-05-07 01:21 | 37.59644 | -75.97096 | 40895 ft | 484 kts | 18° |
| 2026-05-07 01:22 | 37.65300 | -75.92471 | 40898 ft | 487 kts | 20° |
| 2026-05-07 01:22 | 37.71023 | -75.87729 | 40906 ft | 488 kts | 20° |
| 2026-05-07 01:23 | 37.76712 | -75.83005 | 40903 ft | 487 kts | 19° |
| 2026-05-07 01:23 | 37.82371 | -75.78297 | 40903 ft | 485 kts | 20° |
| 2026-05-07 01:24 | 37.88008 | -75.73602 | 40897 ft | 486 kts | 20° |
| 2026-05-07 01:24 | 37.93690 | -75.68866 | 40893 ft | 489 kts | 20° |
| 2026-05-07 01:25 | 37.99406 | -75.64088 | 40899 ft | 489 kts | 19° |
| 2026-05-07 01:25 | 38.05070 | -75.59343 | 40895 ft | 487 kts | 20° |
| 2026-05-07 01:26 | 38.10748 | -75.54579 | 40895 ft | 488 kts | 20° |
| 2026-05-07 01:26 | 38.16394 | -75.49835 | 40892 ft | 489 kts | 20° |
| 2026-05-07 01:27 | 38.22069 | -75.45068 | 40894 ft | 488 kts | 19° |
| 2026-05-07 01:27 | 38.24966 | -75.42969 | 40899 ft | 476 kts | 12° |
| 2026-05-07 01:27 | 38.27995 | -75.41317 | 40893 ft | 462 kts | 5° |
| 2026-05-07 01:27 | 38.30956 | -75.40176 | 40893 ft | 449 kts | 358° |
| 2026-05-07 01:28 | 38.34077 | -75.39401 | 40897 ft | 439 kts | 354° |
| 2026-05-07 01:28 | 38.40116 | -75.38126 | 40897 ft | 439 kts | 354° |
| 2026-05-07 01:29 | 38.46143 | -75.36850 | 40900 ft | 440 kts | 354° |
| 2026-05-07 01:29 | 38.52186 | -75.35565 | 40897 ft | 440 kts | 354° |
| 2026-05-07 01:30 | 38.58243 | -75.34276 | 40893 ft | 439 kts | 355° |
| 2026-05-07 01:30 | 38.64268 | -75.32990 | 40894 ft | 439 kts | 354° |
| 2026-05-07 01:31 | 38.70298 | -75.31702 | 40899 ft | 439 kts | 354° |
| 2026-05-07 01:31 | 38.76408 | -75.29990 | 40892 ft | 458 kts | 3° |
| 2026-05-07 01:31 | 38.79417 | -75.28510 | 40892 ft | 473 kts | 10° |
| 2026-05-07 01:32 | 38.82391 | -75.26535 | 40885 ft | 482 kts | 14° |
| 2026-05-07 01:32 | 38.88265 | -75.22357 | 40886 ft | 483 kts | 15° |
| 2026-05-07 01:33 | 38.94129 | -75.18185 | 40887 ft | 483 kts | 15° |
| 2026-05-07 01:33 | 39.00028 | -75.13982 | 40881 ft | 484 kts | 15° |
| 2026-05-07 01:34 | 39.05935 | -75.09763 | 40889 ft | 485 kts | 15° |
| 2026-05-07 01:34 | 39.11820 | -75.05555 | 40888 ft | 485 kts | 14° |
| 2026-05-07 01:35 | 39.17742 | -75.01309 | 40880 ft | 484 kts | 15° |
| 2026-05-07 01:35 | 39.23637 | -74.97078 | 40873 ft | 485 kts | 15° |
| 2026-05-07 01:36 | 39.29415 | -74.92329 | 40874 ft | 500 kts | 21° |
| 2026-05-07 01:36 | 39.35156 | -74.87096 | 40879 ft | 500 kts | 21° |
| 2026-05-07 01:37 | 39.40835 | -74.81914 | 40881 ft | 499 kts | 21° |
| 2026-05-07 01:37 | 39.46526 | -74.76712 | 40878 ft | 499 kts | 21° |
| 2026-05-07 01:38 | 39.52178 | -74.71538 | 40885 ft | 500 kts | 21° |
| 2026-05-07 01:38 | 39.57867 | -74.66321 | 40876 ft | 501 kts | 21° |
| 2026-05-07 01:39 | 39.63586 | -74.61065 | 40871 ft | 501 kts | 21° |
| 2026-05-07 01:39 | 39.69276 | -74.55824 | 40864 ft | 500 kts | 21° |
| 2026-05-07 01:40 | 39.74937 | -74.50600 | 40862 ft | 501 kts | 21° |
| 2026-05-07 01:40 | 39.80621 | -74.45346 | 40861 ft | 501 kts | 21° |
| 2026-05-07 01:41 | 39.86298 | -74.40083 | 40862 ft | 499 kts | 21° |
| 2026-05-07 01:41 | 39.91943 | -74.34841 | 40872 ft | 499 kts | 21° |
| 2026-05-07 01:42 | 39.97422 | -74.29747 | 40873 ft | 500 kts | 22° |
| 2026-05-07 01:42 | 40.03269 | -74.24299 | 40863 ft | 502 kts | 22° |
| 2026-05-07 01:43 | 40.09006 | -74.18944 | 40870 ft | 506 kts | 21° |
| 2026-05-07 01:43 | 40.14746 | -74.13568 | 40868 ft | 506 kts | 22° |
| 2026-05-07 01:44 | 40.20472 | -74.08196 | 40874 ft | 507 kts | 22° |
| 2026-05-07 01:44 | 40.26215 | -74.02795 | 40858 ft | 507 kts | 22° |
| 2026-05-07 01:45 | 40.31955 | -73.97385 | 40860 ft | 505 kts | 22° |
| 2026-05-07 01:45 | 40.34842 | -73.94896 | 40859 ft | 493 kts | 15° |
| 2026-05-07 01:45 | 40.37864 | -73.92873 | 40853 ft | 482 kts | 10° |
| 2026-05-07 01:46 | 40.43960 | -73.89119 | 40852 ft | 482 kts | 11° |
| 2026-05-07 01:46 | 40.50021 | -73.85374 | 40843 ft | 483 kts | 11° |
| 2026-05-07 01:47 | 40.56079 | -73.81622 | 40853 ft | 485 kts | 11° |
| 2026-05-07 01:47 | 40.61991 | -73.77671 | 40848 ft | 498 kts | 18° |
| 2026-05-07 01:47 | 40.64972 | -73.74986 | 40844 ft | 511 kts | 25° |
| 2026-05-07 01:48 | 40.67643 | -73.71990 | 40843 ft | 519 kts | 30° |
| 2026-05-07 01:48 | 40.72968 | -73.65636 | 40840 ft | 519 kts | 30° |
| 2026-05-07 01:49 | 40.78265 | -73.59309 | 40837 ft | 520 kts | 31° |
| 2026-05-07 01:49 | 40.83616 | -73.52902 | 40782 ft | 522 kts | 30° |
| 2026-05-07 01:49 | 40.86233 | -73.49770 | 40283 ft | 526 kts | 30° |
| 2026-05-07 01:50 | 40.88706 | -73.46799 | 39722 ft | 523 kts | 30° |
| 2026-05-07 01:50 | 40.91062 | -73.43966 | 39118 ft | 521 kts | 29° |
| 2026-05-07 01:50 | 40.93753 | -73.40725 | 38485 ft | 518 kts | 29° |
| 2026-05-07 01:50 | 40.96416 | -73.37517 | 37772 ft | 516 kts | 29° |
| 2026-05-07 01:51 | 40.99069 | -73.34315 | 37120 ft | 515 kts | 31° |
| 2026-05-07 01:51 | 41.01715 | -73.31115 | 36430 ft | 517 kts | 31° |
| 2026-05-07 01:51 | 41.04362 | -73.27914 | 35736 ft | 520 kts | 31° |
| 2026-05-07 01:51 | 41.07050 | -73.24664 | 35059 ft | 521 kts | 31° |
| 2026-05-07 01:52 | 41.09721 | -73.21433 | 34353 ft | 524 kts | 31° |
| 2026-05-07 01:52 | 41.12432 | -73.18150 | 33662 ft | 527 kts | 32° |
| 2026-05-07 01:52 | 41.15138 | -73.14868 | 32964 ft | 529 kts | 32° |
| 2026-05-07 01:52 | 41.17836 | -73.11590 | 32267 ft | 530 kts | 32° |
| 2026-05-07 01:53 | 41.20567 | -73.08270 | 31543 ft | 533 kts | 32° |
| 2026-05-07 01:53 | 41.23300 | -73.04941 | 30856 ft | 535 kts | 32° |
| 2026-05-07 01:53 | 41.26035 | -73.01607 | 30111 ft | 536 kts | 33° |
| 2026-05-07 01:53 | 41.28772 | -72.98265 | 29429 ft | 538 kts | 33° |
| 2026-05-07 01:54 | 41.31547 | -72.94872 | 28705 ft | 538 kts | 33° |
| 2026-05-07 01:54 | 41.34298 | -72.91499 | 27991 ft | 532 kts | 34° |
| 2026-05-07 01:54 | 41.37003 | -72.88178 | 27277 ft | 525 kts | 33° |
| 2026-05-07 01:54 | 41.39667 | -72.84902 | 26600 ft | 518 kts | 34° |
| 2026-05-07 01:55 | 41.42278 | -72.81690 | 25892 ft | 512 kts | 34° |
| 2026-05-07 01:55 | 41.44903 | -72.78457 | 25236 ft | 505 kts | 34° |
| 2026-05-07 01:55 | 41.47449 | -72.75319 | 24556 ft | 499 kts | 34° |
| 2026-05-07 01:55 | 41.49975 | -72.72203 | 23911 ft | 493 kts | 35° |
| 2026-05-07 01:56 | 41.52489 | -72.69099 | 23247 ft | 488 kts | 34° |
| 2026-05-07 01:56 | 41.54968 | -72.66036 | 22604 ft | 482 kts | 35° |
| 2026-05-07 01:56 | 41.57414 | -72.63012 | 21965 ft | 477 kts | 36° |
| 2026-05-07 01:56 | 41.59827 | -72.60025 | 21342 ft | 471 kts | 36° |
| 2026-05-07 01:57 | 41.62210 | -72.57071 | 20721 ft | 465 kts | 37° |
| 2026-05-07 01:57 | 41.64597 | -72.54201 | 20102 ft | 458 kts | 34° |
| 2026-05-07 01:57 | 41.67037 | -72.51505 | 19496 ft | 453 kts | 34° |
| 2026-05-07 01:57 | 41.69445 | -72.48856 | 18896 ft | 448 kts | 34° |
| 2026-05-07 01:58 | 41.71858 | -72.46198 | 18299 ft | 444 kts | 35° |
| 2026-05-07 01:58 | 41.74226 | -72.43586 | 17719 ft | 442 kts | 35° |
| 2026-05-07 01:58 | 41.76591 | -72.40974 | 17345 ft | 435 kts | 35° |
| 2026-05-07 01:58 | 41.78924 | -72.38399 | 16712 ft | 439 kts | 35° |
| 2026-05-07 01:59 | 41.81260 | -72.35812 | 16161 ft | 431 kts | 35° |
| 2026-05-07 01:59 | 41.83589 | -72.33234 | 15576 ft | 428 kts | 36° |
| 2026-05-07 01:59 | 41.85853 | -72.30724 | 15020 ft | 426 kts | 36° |
| 2026-05-07 01:59 | 41.88129 | -72.28165 | 14447 ft | 423 kts | 37° |
| 2026-05-07 02:00 | 41.90360 | -72.25635 | 13890 ft | 417 kts | 38° |
| 2026-05-07 02:00 | 41.92570 | -72.23126 | 13323 ft | 408 kts | 37° |
| 2026-05-07 02:00 | 41.94710 | -72.20695 | 12804 ft | 399 kts | 37° |
| 2026-05-07 02:00 | 41.96812 | -72.18306 | 12247 ft | 393 kts | 37° |
| 2026-05-07 02:01 | 41.98872 | -72.15964 | 11745 ft | 383 kts | 37° |
| 2026-05-07 02:01 | 42.00887 | -72.13667 | 11244 ft | 375 kts | 37° |
| 2026-05-07 02:01 | 42.02870 | -72.11407 | 10761 ft | 368 kts | 36° |
| 2026-05-07 02:01 | 42.04816 | -72.09189 | 10252 ft | 362 kts | 37° |
| 2026-05-07 02:02 | 42.06723 | -72.07011 | 9790 ft | 354 kts | 37° |
| 2026-05-07 02:02 | 42.08581 | -72.04889 | 9322 ft | 348 kts | 37° |
| 2026-05-07 02:02 | 42.10416 | -72.02802 | 8873 ft | 341 kts | 37° |
| 2026-05-07 02:02 | 42.12255 | -72.00790 | 8406 ft | 336 kts | 36° |
| 2026-05-07 02:03 | 42.14058 | -71.98824 | 7964 ft | 330 kts | 36° |
| 2026-05-07 02:03 | 42.15818 | -71.96906 | 7547 ft | 323 kts | 36° |
| 2026-05-07 02:03 | 42.17567 | -71.94997 | 7107 ft | 318 kts | 36° |
| 2026-05-07 02:03 | 42.19275 | -71.93132 | 6692 ft | 312 kts | 36° |
| 2026-05-07 02:04 | 42.20945 | -71.91304 | 6290 ft | 306 kts | 36° |
| 2026-05-07 02:04 | 42.22591 | -71.89504 | 5886 ft | 301 kts | 36° |
| 2026-05-07 02:04 | 42.24192 | -71.87752 | 5490 ft | 296 kts | 36° |
| 2026-05-07 02:04 | 42.25783 | -71.86008 | 5119 ft | 290 kts | 36° |
| 2026-05-07 02:05 | 42.27339 | -71.84279 | 4996 ft | 289 kts | 37° |
| 2026-05-07 02:05 | 42.28885 | -71.82531 | 4988 ft | 291 kts | 37° |
| 2026-05-07 02:05 | 42.30452 | -71.80760 | 5002 ft | 292 kts | 37° |
| 2026-05-07 02:05 | 42.31995 | -71.79015 | 5006 ft | 292 kts | 36° |
| 2026-05-07 02:06 | 42.33568 | -71.77235 | 5009 ft | 293 kts | 37° |
| 2026-05-07 02:06 | 42.35141 | -71.75452 | 5008 ft | 292 kts | 37° |
| 2026-05-07 02:06 | 42.36664 | -71.73597 | 5010 ft | 293 kts | 43° |
| 2026-05-07 02:06 | 42.38081 | -71.71594 | 5005 ft | 294 kts | 43° |
| 2026-05-07 02:07 | 42.39489 | -71.69586 | 4996 ft | 293 kts | 44° |
| 2026-05-07 02:07 | 42.42324 | -71.65547 | 4992 ft | 294 kts | 44° |
| 2026-05-07 02:07 | 42.43723 | -71.63551 | 4985 ft | 294 kts | 44° |
| 2026-05-07 02:08 | 42.45145 | -71.61521 | 5006 ft | 295 kts | 44° |
| 2026-05-07 02:08 | 42.46549 | -71.59515 | 4995 ft | 294 kts | 44° |
| 2026-05-07 02:08 | 42.47964 | -71.57494 | 4996 ft | 294 kts | 44° |
| 2026-05-07 02:08 | 42.49365 | -71.55489 | 4983 ft | 294 kts | 44° |
| 2026-05-07 02:09 | 42.50681 | -71.53337 | 4996 ft | 295 kts | 56° |
| 2026-05-07 02:09 | 42.51656 | -71.50900 | 4991 ft | 295 kts | 61° |
| 2026-05-07 02:09 | 42.52609 | -71.48438 | 4999 ft | 296 kts | 61° |
| 2026-05-07 02:09 | 42.53578 | -71.45940 | 4984 ft | 295 kts | 60° |
| 2026-05-07 02:10 | 42.54537 | -71.43469 | 4991 ft | 297 kts | 60° |
| 2026-05-07 02:10 | 42.55509 | -71.40969 | 4985 ft | 296 kts | 60° |
| 2026-05-07 02:10 | 42.56462 | -71.38524 | 4984 ft | 296 kts | 60° |
| 2026-05-07 02:10 | 42.57413 | -71.36039 | 4975 ft | 295 kts | 61° |
| 2026-05-07 02:11 | 42.58370 | -71.33556 | 4979 ft | 295 kts | 62° |
| 2026-05-07 02:11 | 42.59341 | -71.31097 | 4984 ft | 296 kts | 61° |
| 2026-05-07 02:11 | 42.60322 | -71.28618 | 4994 ft | 297 kts | 61° |
| 2026-05-07 02:11 | 42.61306 | -71.26119 | 4985 ft | 296 kts | 61° |
| 2026-05-07 02:12 | 42.62276 | -71.23646 | 4991 ft | 295 kts | 62° |
| 2026-05-07 02:12 | 42.63235 | -71.21187 | 4993 ft | 296 kts | 61° |
| 2026-05-07 02:12 | 42.64221 | -71.18682 | 4989 ft | 296 kts | 60° |
| 2026-05-07 02:12 | 42.65185 | -71.16213 | 4989 ft | 296 kts | 61° |
| 2026-05-07 02:13 | 42.66044 | -71.13662 | 4987 ft | 297 kts | 70° |
| 2026-05-07 02:13 | 42.66730 | -71.11010 | 4987 ft | 297 kts | 70° |
| 2026-05-07 02:13 | 42.67411 | -71.08333 | 4988 ft | 297 kts | 71° |
| 2026-05-07 02:13 | 42.68082 | -71.05666 | 4991 ft | 297 kts | 71° |
| 2026-05-07 02:14 | 42.68764 | -71.02980 | 4989 ft | 297 kts | 71° |
| 2026-05-07 02:14 | 42.69449 | -71.00335 | 4992 ft | 298 kts | 71° |
| 2026-05-07 02:14 | 42.70137 | -70.97675 | 4981 ft | 298 kts | 71° |
| 2026-05-07 02:14 | 42.70806 | -70.95016 | 4992 ft | 298 kts | 74° |
| 2026-05-07 02:15 | 42.71362 | -70.92288 | 4990 ft | 297 kts | 76° |
| 2026-05-07 02:15 | 42.71897 | -70.89570 | 4986 ft | 298 kts | 76° |
| 2026-05-07 02:15 | 42.72433 | -70.86842 | 4982 ft | 297 kts | 76° |
| 2026-05-07 02:15 | 42.72965 | -70.84138 | 4971 ft | 299 kts | 76° |
| 2026-05-07 02:16 | 42.73505 | -70.81394 | 4704 ft | 293 kts | 76° |
| 2026-05-07 02:16 | 42.74023 | -70.78773 | 4472 ft | 283 kts | 76° |
| 2026-05-07 02:16 | 42.74518 | -70.76237 | 4244 ft | 275 kts | 76° |
| 2026-05-07 02:16 | 42.74994 | -70.73755 | 4011 ft | 267 kts | 76° |
| 2026-05-07 02:17 | 42.75456 | -70.71355 | 3824 ft | 258 kts | 75° |
| 2026-05-07 02:17 | 42.75858 | -70.69012 | 3644 ft | 250 kts | 88° |
| 2026-05-07 02:17 | 42.75603 | -70.66744 | 3452 ft | 240 kts | 118° |
| 2026-05-07 02:17 | 42.74618 | -70.65063 | 3250 ft | 223 kts | 155° |
| 2026-05-07 02:18 | 42.73229 | -70.64301 | 3059 ft | 209 kts | 171° |
| 2026-05-07 02:18 | 42.71847 | -70.63783 | 2974 ft | 199 kts | 173° |
| 2026-05-07 02:18 | 42.70511 | -70.63300 | 2979 ft | 202 kts | 173° |
| 2026-05-07 02:18 | 42.69138 | -70.62818 | 2907 ft | 202 kts | 173° |
| 2026-05-07 02:19 | 42.67786 | -70.62523 | 2709 ft | 186 kts | 194° |
| 2026-05-07 02:19 | 42.66648 | -70.63145 | 2494 ft | 173 kts | 215° |
| 2026-05-07 02:19 | 42.65625 | -70.63991 | 2286 ft | 168 kts | 216° |
| 2026-05-07 02:19 | 42.64641 | -70.64848 | 2053 ft | 165 kts | 217° |
| 2026-05-07 02:20 | 42.63702 | -70.65726 | 1848 ft | 162 kts | 219° |
| 2026-05-07 02:20 | 42.62794 | -70.66531 | 1787 ft | 155 kts | 208° |
| 2026-05-07 02:20 | 42.61908 | -70.67345 | 1792 ft | 153 kts | 239° |
| 2026-05-07 02:20 | 42.61767 | -70.68762 | 1784 ft | 157 kts | 272° |
| 2026-05-07 02:21 | 42.61855 | -70.70230 | 1815 ft | 148 kts | 263° |
| 2026-05-07 02:21 | 42.61739 | -70.71576 | 1816 ft | 140 kts | 256° |
| 2026-05-07 02:21 | 42.61621 | -70.72889 | 1789 ft | 140 kts | 265° |
| 2026-05-07 02:21 | 42.61687 | -70.74224 | 1813 ft | 141 kts | 268° |
| 2026-05-07 02:22 | 42.61588 | -70.75527 | 1801 ft | 137 kts | 249° |
| 2026-05-07 02:22 | 42.61288 | -70.76749 | 1796 ft | 137 kts | 247° |
| 2026-05-07 02:22 | 42.61004 | -70.77994 | 1793 ft | 137 kts | 251° |
| 2026-05-07 02:22 | 42.60739 | -70.79225 | 1797 ft | 137 kts | 250° |
| 2026-05-07 02:23 | 42.60469 | -70.80482 | 1758 ft | 138 kts | 251° |
| 2026-05-07 02:23 | 42.60209 | -70.81731 | 1527 ft | 136 kts | 251° |
| 2026-05-07 02:23 | 42.59972 | -70.82897 | 1390 ft | 118 kts | 251° |
| 2026-05-07 02:23 | 42.59771 | -70.83883 | 1261 ft | 105 kts | 250° |
| 2026-05-07 02:24 | 42.59571 | -70.84834 | 1065 ft | 102 kts | 250° |
| 2026-05-07 02:24 | 42.59381 | -70.85738 | 926 ft | 104 kts | 250° |
| 2026-05-07 02:24 | 42.59184 | -70.86687 | 766 ft | 105 kts | 251° |
| 2026-05-07 02:24 | 42.58989 | -70.87648 | 601 ft | 106 kts | 251° |
| 2026-05-07 02:25 | 42.58789 | -70.88618 | 447 ft | 107 kts | 251° |
| 2026-05-07 02:25 | 42.58605 | -70.89494 | 326 ft | 108 kts | 251° |
| 2026-05-07 02:25 | 42.58392 | -70.90493 | 155 ft | 111 kts | 251° |
| 2026-05-07 02:25 | 42.58189 | -70.91444 | 90 ft | 92 kts | 253° |
| 2026-05-07 02:26 | 42.58086 | -70.91937 | 83 ft | 29 kts | 254° |
| 2026-05-07 02:26 | 42.58072 | -70.92068 | 80 ft | 8 kts | 333° |
| 2026-05-07 02:26 | 42.58134 | -70.92059 | 81 ft | 10 kts | 9° |
| 2026-05-07 02:26 | 42.58217 | -70.92041 | 83 ft | 13 kts | 9° |
| 2026-05-07 02:27 | 42.58321 | -70.92017 | 86 ft | 16 kts | 11° |
| 2026-05-07 02:27 | 42.58425 | -70.91991 | 90 ft | 13 kts | 10° |
| 2026-05-07 02:27 | 42.58513 | -70.91969 | 93 ft | 12 kts | 9° |
| 2026-05-07 02:27 | 42.58567 | -70.91966 | 94 ft | 5 kts | 308° |
| 2026-05-07 02:28 | 42.58577 | -70.92027 | 94 ft | 5 kts | 310° |
| 2026-05-07 02:28 | 42.58622 | -70.91999 | 95 ft | 7 kts | 40° |
| 2026-05-07 02:28 | 42.58651 | -70.91982 | 96 ft | 3 kts | 19° |
| 2026-05-07 02:28 | 42.58657 | -70.91966 | 96 ft | 0 kts | 107° |